Time;durP1;ratioP1;P1;durP2;ratioP2;P2;SDS_P1;SDS_P2;PMS_P1;PMS_P2;Temp;Humidity;BMP_temperature;BMP_pressure;BME280_temperature;BME280_humidity;BME280_pressure;Samples;Min_cycle;Max_cycle;Signal;HPM_P1;HPM_P2
2023/07/15 00:00:53;;;;;;;9.45;6.95;;;;;;;24.42;94.29;65570.44;5072560;28;20229;-55
2023/07/15 00:03:20;;;;;;;15.52;7.15;;;;;;;24.43;94.28;65571.00;5072439;28;20192;-54
2023/07/15 00:05:47;;;;;;;10.02;6.60;;;;;;;24.49;93.87;65575.06;5072492;28;20192;-54
2023/07/15 00:08:12;;;;;;;10.75;6.63;;;;;;;24.50;93.99;65578.75;5072719;28;20232;-54
2023/07/15 00:10:42;;;;;;;8.90;7.57;;;;;;;24.37;95.42;65562.31;5072665;28;20593;-53
2023/07/15 00:13:15;;;;;;;13.15;7.57;;;;;;;24.50;95.03;65579.31;5072267;28;20205;-53
2023/07/15 00:15:43;;;;;;;11.57;7.18;;;;;;;24.58;94.06;65588.19;5072301;28;20774;-54
2023/07/15 00:18:14;;;;;;;11.20;7.95;;;;;;;24.71;93.15;65599.47;5072252;28;20200;-54
2023/07/15 00:20:43;;;;;;;12.73;8.50;;;;;;;24.58;93.35;65588.19;5072389;28;20212;-54
2023/07/15 00:23:23;;;;;;;9.20;7.68;;;;;;;24.36;91.80;65565.81;5072088;28;20197;-54
2023/07/15 00:25:50;;;;;;;11.00;7.85;;;;;;;24.11;93.14;65533.50;5072142;28;20215;-54
2023/07/15 00:28:20;;;;;;;14.38;8.55;;;;;;;23.87;94.89;65509.44;5072031;28;20181;-54
2023/07/15 00:30:53;;;;;;;10.27;7.93;;;;;;;23.68;96.33;65488.38;5071903;28;20213;-58
2023/07/15 00:33:20;;;;;;;12.80;8.02;;;;;;;23.68;96.95;65486.34;5072087;28;20711;-61
2023/07/15 00:35:47;;;;;;;9.38;7.35;;;;;;;23.56;97.63;65472.50;5071864;28;20228;-63
2023/07/15 00:38:13;;;;;;;11.00;7.95;;;;;;;23.42;99.56;65459.56;5054019;28;20813;-55
2023/07/15 00:40:46;;;;;;;9.05;7.97;;;;;;;23.38;100.00;65455.69;5071205;28;20217;-60
2023/07/15 00:43:49;;;;;;;14.07;8.48;;;;;;;23.23;100.00;65439.59;5071846;28;20201;-54
2023/07/15 00:46:18;;;;;;;12.45;8.70;;;;;;;23.18;100.00;65433.50;5071827;28;20231;-52
2023/07/15 00:48:52;;;;;;;8.77;7.55;;;;;;;23.19;100.00;65434.63;5071814;28;20279;-53
2023/07/15 00:51:19;;;;;;;13.48;9.48;;;;;;;23.27;100.00;65446.59;5072060;28;20253;-54
2023/07/15 00:53:44;;;;;;;12.20;8.90;;;;;;;23.17;100.00;65429.81;5071850;28;20308;-59
2023/07/15 00:56:11;;;;;;;12.05;8.73;;;;;;;23.25;100.00;65439.22;5081732;22;20624;-53
2023/07/15 00:58:37;;;;;;;14.75;8.55;;;;;;;23.37;100.00;65452.00;5071393;28;20212;-54
2023/07/15 01:01:03;;;;;;;13.57;8.20;;;;;;;23.30;100.00;65444.22;5067414;28;20212;-54
2023/07/15 01:03:28;;;;;;;9.45;7.80;;;;;;;23.34;100.00;65451.81;5051356;28;20259;-53
2023/07/15 01:05:56;;;;;;;11.55;8.15;;;;;;;23.38;100.00;65455.69;5051391;28;20220;-54
2023/07/15 01:08:21;;;;;;;13.93;8.05;;;;;;;23.46;100.00;65467.13;5051427;28;20280;-55
2023/07/15 01:10:46;;;;;;;11.70;8.38;;;;;;;23.42;100.00;65459.56;5051569;28;20280;-54
2023/07/15 01:13:12;;;;;;;12.38;8.65;;;;;;;23.41;100.00;65461.59;5051439;28;20215;-54
2023/07/15 01:15:37;;;;;;;11.32;7.68;;;;;;;23.32;100.00;65447.03;5050042;28;20259;-56
2023/07/15 01:18:03;;;;;;;9.48;7.47;;;;;;;23.20;100.00;65433.16;5051287;28;20675;-54
2023/07/15 01:20:28;;;;;;;13.63;8.20;;;;;;;23.25;100.00;65441.81;5051100;28;20201;-54
2023/07/15 01:22:54;;;;;;;10.90;7.70;;;;;;;23.16;100.00;65431.28;5050970;28;20205;-53
2023/07/15 01:25:19;;;;;;;12.43;8.35;;;;;;;23.15;100.00;65430.72;5050921;28;20208;-55
2023/07/15 01:27:45;;;;;;;10.38;7.85;;;;;;;23.16;100.00;65431.84;5051263;28;20696;-55
2023/07/15 01:30:11;;;;;;;9.07;8.13;;;;;;;23.09;100.00;65426.66;5051003;28;20201;-55
2023/07/15 01:32:37;;;;;;;13.02;8.73;;;;;;;23.11;100.00;65423.72;5049816;28;20224;-54
2023/07/15 01:35:05;;;;;;;8.63;7.53;;;;;;;23.14;100.00;65427.06;5048587;28;20201;-53
2023/07/15 01:37:30;;;;;;;11.45;8.20;;;;;;;23.11;100.00;65428.31;5048645;28;20220;-55
2023/07/15 01:39:57;;;;;;;11.93;8.10;;;;;;;23.08;100.00;65425.00;5048610;28;20209;-54
2023/07/15 01:42:22;;;;;;;10.73;8.32;;;;;;;23.16;100.00;65433.88;5086029;22;20220;-55
2023/07/15 01:44:48;;;;;;;11.07;7.85;;;;;;;23.10;100.00;65425.19;5070712;28;20322;-53
2023/07/15 01:47:13;;;;;;;10.48;8.48;;;;;;;23.02;100.00;65416.34;5056446;28;20692;-54
2023/07/15 01:49:39;;;;;;;12.07;8.02;;;;;;;23.04;100.00;65421.13;5049848;28;20679;-55
2023/07/15 01:52:06;;;;;;;11.02;8.75;;;;;;;23.01;100.00;65417.22;5050482;28;20213;-55
2023/07/15 01:54:31;;;;;;;10.23;8.25;;;;;;;23.08;100.00;65422.97;5050500;28;20277;-53
2023/07/15 01:56:57;;;;;;;9.80;8.40;;;;;;;22.96;100.00;65409.69;5050385;28;20290;-54
2023/07/15 01:59:22;;;;;;;10.45;7.78;;;;;;;23.00;100.00;65414.13;5050566;28;20599;-54
2023/07/15 02:01:49;;;;;;;10.15;7.93;;;;;;;23.07;100.00;65418.75;5050755;28;20209;-54
2023/07/15 02:04:15;;;;;;;10.82;7.78;;;;;;;22.91;100.00;65403.59;5032808;28;20232;-55
2023/07/15 02:06:40;;;;;;;10.68;9.02;;;;;;;22.96;100.00;65409.69;5032725;28;20288;-54
2023/07/15 02:09:07;;;;;;;12.25;7.60;;;;;;;22.93;100.00;65406.38;5050411;28;20193;-54
2023/07/15 02:11:34;;;;;;;10.20;7.95;;;;;;;22.99;100.00;65413.00;5050058;28;20213;-53
2023/07/15 02:14:00;;;;;;;8.75;7.55;;;;;;;22.95;100.00;65408.56;5050218;28;20266;-53
2023/07/15 02:16:27;;;;;;;11.70;8.07;;;;;;;22.93;100.00;65408.38;5050523;28;20317;-54
2023/07/15 02:18:53;;;;;;;12.13;8.10;;;;;;;22.84;100.00;65393.84;5050287;28;20201;-54
2023/07/15 02:21:19;;;;;;;12.05;7.57;;;;;;;22.96;100.00;65412.25;5050545;28;20247;-54
2023/07/15 02:23:45;;;;;;;10.35;8.45;;;;;;;22.92;100.00;65404.69;5050112;28;20290;-54
2023/07/15 02:26:11;;;;;;;11.10;8.07;;;;;;;22.94;100.00;65406.91;5050494;28;20212;-53
2023/07/15 02:28:37;;;;;;;11.30;8.65;;;;;;;23.00;100.00;65414.13;5050230;28;20197;-54
2023/07/15 02:31:04;;;;;;;13.57;8.30;;;;;;;22.97;100.00;65413.38;5050250;28;20217;-54
2023/07/15 02:33:30;;;;;;;10.60;8.57;;;;;;;22.95;100.00;65411.16;5050482;28;20215;-54
2023/07/15 02:35:55;;;;;;;10.13;7.75;;;;;;;23.02;100.00;65415.78;5050490;28;20228;-55
2023/07/15 02:38:21;;;;;;;12.40;8.52;;;;;;;22.93;100.00;65403.78;5032448;28;20201;-54
2023/07/15 02:40:48;;;;;;;11.70;7.60;;;;;;;22.93;100.00;65408.38;5050360;28;20217;-54
2023/07/15 02:43:13;;;;;;;10.80;8.98;;;;;;;23.02;100.00;65413.78;5050133;28;20202;-54
2023/07/15 02:45:39;;;;;;;13.02;8.68;;;;;;;23.04;100.00;65418.00;5050238;28;20197;-55
2023/07/15 02:48:04;;;;;;;12.55;8.90;;;;;;;23.00;100.00;65414.13;5050154;28;20197;-54
2023/07/15 02:50:30;;;;;;;11.88;7.85;;;;;;;22.85;100.00;65396.94;5050409;28;20205;-54
2023/07/15 02:52:55;;;;;;;10.30;8.07;;;;;;;22.93;100.00;65405.81;5032188;28;20212;-54
2023/07/15 02:55:21;;;;;;;10.75;8.05;;;;;;;22.71;100.00;65381.44;5050057;28;20229;-52
2023/07/15 02:57:47;;;;;;;10.63;8.50;;;;;;;22.70;100.00;65383.47;5050117;28;20590;-53
2023/07/15 03:00:15;;;;;;;12.35;8.45;;;;;;;22.67;100.00;65377.56;5049835;28;20225;-54
2023/07/15 03:02:49;;;;;;;9.38;7.97;;;;;;;22.67;100.00;65377.00;5049945;28;20214;-53
2023/07/15 03:05:16;;;;;;;14.68;8.05;;;;;;;22.76;100.00;65387.53;5036138;28;20225;-55
2023/07/15 03:07:44;;;;;;;13.30;8.10;;;;;;;22.97;100.00;65410.78;5053463;28;20216;-54
2023/07/15 03:10:12;;;;;;;11.70;8.60;;;;;;;22.88;100.00;65398.25;5053340;28;20244;-54
2023/07/15 03:12:37;;;;;;;12.02;9.25;;;;;;;22.99;100.00;65412.44;5053358;28;20279;-54
2023/07/15 03:15:04;;;;;;;10.32;7.72;;;;;;;22.88;100.00;65400.84;5053374;28;20652;-54
2023/07/15 03:17:35;;;;;;;15.35;10.15;;;;;;;23.03;100.00;65420.00;5053272;28;20309;-54
2023/07/15 03:20:04;;;;;;;11.68;9.02;;;;;;;23.00;100.00;65416.13;5053175;28;20733;-53
2023/07/15 03:22:30;;;;;;;12.23;8.05;;;;;;;23.14;100.00;65429.63;5053046;28;20216;-55
2023/07/15 03:24:55;;;;;;;10.68;8.85;;;;;;;23.22;100.00;65438.50;5053040;28;20201;-57
2023/07/15 03:27:21;;;;;;;11.75;8.63;;;;;;;23.13;100.00;65427.94;5053062;28;20252;-54
2023/07/15 03:29:49;;;;;;;9.80;8.45;;;;;;;23.14;99.69;65427.06;5053089;28;20196;-54
2023/07/15 03:32:14;;;;;;;13.05;8.52;;;;;;;23.17;100.00;65432.94;5052939;28;20704;-55
2023/07/15 03:34:39;;;;;;;10.43;8.32;;;;;;;22.98;100.00;65411.91;5052999;28;20189;-58
2023/07/15 03:37:05;;;;;;;13.27;8.10;;;;;;;22.88;100.00;65398.25;5052823;28;20221;-53
2023/07/15 03:39:30;;;;;;;13.30;8.43;;;;;;;22.71;100.00;65379.44;5052865;28;20750;-54
2023/07/15 03:41:56;;;;;;;11.60;7.45;;;;;;;22.67;100.00;65379.59;5052892;28;20566;-54
2023/07/15 03:44:21;;;;;;;13.93;7.68;;;;;;;22.44;100.00;65355.19;5052746;28;20198;-54
2023/07/15 03:46:47;;;;;;;11.23;8.15;;;;;;;22.23;100.00;65328.84;5053215;28;20210;-56
2023/07/15 03:49:12;;;;;;;10.82;8.05;;;;;;;22.22;100.00;65325.72;5051579;28;20679;-56
2023/07/15 03:51:38;;;;;;;13.90;8.70;;;;;;;22.15;100.00;65320.53;5052553;28;20212;-55
2023/07/15 03:54:05;;;;;;;14.25;8.43;;;;;;;22.20;100.00;65328.63;5052891;28;20189;-55
2023/07/15 03:56:31;;;;;;;13.30;8.05;;;;;;;22.34;100.00;65338.44;5053014;28;20209;-54
2023/07/15 03:58:57;;;;;;;12.35;8.43;;;;;;;22.46;100.00;65354.31;5052627;28;20584;-58
2023/07/15 04:01:22;;;;;;;11.65;8.52;;;;;;;22.40;100.00;65345.09;5034823;28;20228;-55
2023/07/15 04:03:47;;;;;;;12.48;8.77;;;;;;;22.33;100.00;65342.47;5052359;28;20691;-54
2023/07/15 04:06:13;;;;;;;10.10;8.05;;;;;;;22.43;100.00;65351.53;5052687;28;20219;-54
2023/07/15 04:08:39;;;;;;;12.13;8.00;;;;;;;22.44;100.00;65352.63;5052626;28;20206;-54
2023/07/15 04:11:06;;;;;;;15.07;9.80;;;;;;;22.69;100.00;65376.66;5052497;28;20691;-55
2023/07/15 04:13:32;;;;;;;10.95;8.30;;;;;;;22.56;100.00;65365.38;5052430;28;20754;-55
2023/07/15 04:15:57;;;;;;;11.13;8.32;;;;;;;22.54;100.00;65360.59;5052465;28;20218;-54
2023/07/15 04:18:30;;;;;;;11.23;8.40;;;;;;;22.55;100.00;65362.25;5052357;28;20193;-54
2023/07/15 04:20:55;;;;;;;13.32;9.15;;;;;;;22.71;100.00;65378.88;5052293;28;20222;-54
2023/07/15 04:23:21;;;;;;;13.25;8.77;;;;;;;22.95;100.00;65408.56;5052397;28;20651;-55
2023/07/15 04:25:47;;;;;;;10.80;8.55;;;;;;;22.81;100.00;65393.06;5052411;28;20205;-54
2023/07/15 04:28:13;;;;;;;10.77;8.93;;;;;;;22.78;100.00;65386.63;5052447;28;20205;-58
2023/07/15 04:30:39;;;;;;;15.85;9.43;;;;;;;22.88;100.00;65400.84;5052213;28;20214;-54
2023/07/15 04:33:04;;;;;;;11.35;8.60;;;;;;;22.63;100.00;65373.13;5034273;28;20430;-55
2023/07/15 04:35:30;;;;;;;13.07;9.00;;;;;;;22.62;100.00;65371.47;5052162;28;20210;-53
2023/07/15 04:37:55;;;;;;;13.32;9.95;;;;;;;22.64;100.00;65371.69;5052115;28;20201;-54
2023/07/15 04:40:21;;;;;;;10.52;9.02;;;;;;;22.73;100.00;65384.22;5051849;28;20691;-54
2023/07/15 04:42:46;;;;;;;14.07;9.38;;;;;;;22.85;100.00;65394.94;5051989;28;20592;-55
2023/07/15 04:45:12;;;;;;;12.07;9.88;;;;;;;23.21;100.00;65434.25;5050606;28;20259;-54
2023/07/15 04:47:39;;;;;;;12.68;8.95;;;;;;;23.21;100.00;65437.38;5051941;28;20584;-56
2023/07/15 04:50:05;;;;;;;12.32;8.82;;;;;;;23.28;100.00;65442.56;5050503;28;20281;-56
2023/07/15 04:52:30;;;;;;;10.52;8.82;;;;;;;23.30;100.00;65444.78;5051625;28;20221;-53
2023/07/15 04:54:55;;;;;;;12.70;9.23;;;;;;;23.30;100.00;65446.81;5052030;28;20233;-54
2023/07/15 04:57:21;;;;;;;12.32;9.65;;;;;;;22.96;100.00;65406.56;5051706;28;20588;-54
2023/07/15 04:59:48;;;;;;;11.23;9.65;;;;;;;22.82;100.00;65394.19;5051606;28;20213;-55
2023/07/15 05:02:14;;;;;;;11.10;9.43;;;;;;;22.73;100.00;65381.09;5051668;28;20259;-55
2023/07/15 05:04:40;;;;;;;13.85;9.57;;;;;;;22.80;100.00;65391.41;5051560;28;20581;-54
2023/07/15 05:07:06;;;;;;;11.93;8.98;;;;;;;23.11;100.00;65426.31;5051636;28;20209;-55
2023/07/15 05:09:32;;;;;;;12.98;8.80;;;;;;;23.27;100.00;65440.91;5051604;28;20206;-54
2023/07/15 05:11:57;;;;;;;11.05;8.13;;;;;;;23.31;100.00;65448.47;5051387;28;20283;-54
2023/07/15 05:14:23;;;;;;;12.02;8.80;;;;;;;23.72;100.00;65492.81;5051286;28;20197;-54
2023/07/15 05:16:48;;;;;;;16.75;12.60;;;;;;;23.78;100.00;65499.44;5051306;28;20205;-54
2023/07/15 05:19:14;;;;;;;12.30;8.75;;;;;;;23.75;100.00;65498.72;5049951;28;20648;-53
2023/07/15 05:21:39;;;;;;;16.10;10.65;;;;;;;23.69;100.00;65492.63;5033374;28;20213;-54
2023/07/15 05:24:05;;;;;;;12.57;9.70;;;;;;;23.73;100.00;65496.50;5051215;28;20276;-54
2023/07/15 05:26:31;;;;;;;11.40;10.15;;;;;;;23.71;100.00;65491.69;5050841;28;20589;-53
2023/07/15 05:28:56;;;;;;;15.75;11.27;;;;;;;23.83;100.00;65505.56;5051158;28;20236;-54
2023/07/15 05:31:22;;;;;;;17.20;10.18;;;;;;;23.92;100.00;65512.41;5051323;28;20217;-54
2023/07/15 05:33:47;;;;;;;12.70;10.55;;;;;;;23.99;100.00;65520.16;5051144;28;20667;-54
2023/07/15 05:36:14;;;;;;;15.80;10.52;;;;;;;23.89;100.00;65509.09;5050997;28;20225;-55
2023/07/15 05:38:43;;;;;;;17.20;10.68;;;;;;;23.92;100.00;65518.09;5051521;28;20533;-54
2023/07/15 05:41:11;;;;;;;16.75;9.60;;;;;;;23.94;100.00;65512.03;5051221;28;20220;-54
2023/07/15 05:43:37;;;;;;;18.35;10.32;;;;;;;24.03;100.00;65524.63;5051054;28;20255;-54
2023/07/15 05:46:02;;;;;;;13.93;10.20;;;;;;;23.87;100.00;65507.41;5049716;28;20213;-53
2023/07/15 05:48:27;;;;;;;16.30;8.75;;;;;;;23.91;100.00;65511.28;5050970;28;20284;-54
2023/07/15 05:50:53;;;;;;;13.73;9.48;;;;;;;24.12;100.00;65537.72;5050961;28;20377;-54
2023/07/15 05:53:19;;;;;;;11.20;8.63;;;;;;;24.14;100.00;65537.38;5051026;28;20172;-56
2023/07/15 05:55:44;;;;;;;15.32;10.18;;;;;;;24.26;100.00;65547.00;5050663;28;20201;-57
2023/07/15 05:58:09;;;;;;;17.63;9.80;;;;;;;24.32;100.00;65556.75;5049452;28;20292;-54
2023/07/15 06:00:40;;;;;;;17.23;10.35;;;;;;;24.27;100.00;65550.66;5050589;28;20700;-53
2023/07/15 06:03:05;;;;;;;12.65;10.55;;;;;;;24.41;100.00;65568.78;5050632;28;20262;-54
2023/07/15 06:05:31;;;;;;;15.50;10.05;;;;;;;24.40;100.00;65563.06;5050737;28;20197;-57
2023/07/15 06:07:56;;;;;;;15.98;10.25;;;;;;;24.41;100.00;65566.19;5050519;28;20231;-54
2023/07/15 06:10:22;;;;;;;18.55;11.68;;;;;;;24.46;100.00;65571.75;5050665;28;20209;-55
2023/07/15 06:12:48;;;;;;;22.35;13.95;;;;;;;24.73;100.00;65604.28;5050467;28;20746;-54
2023/07/15 06:15:13;;;;;;;31.38;15.23;;;;;;;24.97;100.00;65628.88;5050575;28;20198;-53
2023/07/15 06:17:40;;;;;;;27.80;14.40;;;;;;;25.11;100.00;65643.88;5050539;28;20216;-53
2023/07/15 06:20:06;;;;;;;25.35;14.10;;;;;;;25.27;100.00;65661.63;5032415;28;20213;-54
2023/07/15 06:22:32;;;;;;;27.27;14.38;;;;;;;25.38;100.00;65675.84;5050261;28;20206;-53
2023/07/15 06:24:57;;;;;;;20.25;13.18;;;;;;;25.55;100.00;65692.19;5050308;28;20304;-53
2023/07/15 06:27:23;;;;;;;25.58;15.00;;;;;;;25.71;100.00;65710.47;5050226;28;20327;-53
2023/07/15 06:29:49;;;;;;;17.52;10.02;;;;;;;25.77;95.34;65716.59;5050155;28;20215;-53
2023/07/15 06:32:14;;;;;;;14.27;10.65;;;;;;;25.69;93.71;65705.13;5036594;22;20233;-54
2023/07/15 06:34:40;;;;;;;11.88;9.65;;;;;;;25.67;90.66;65705.50;5030457;28;20593;-54
2023/07/15 06:37:06;;;;;;;17.73;10.45;;;;;;;25.52;92.07;65688.84;5030977;28;20242;-54
2023/07/15 06:39:31;;;;;;;15.93;10.93;;;;;;;25.46;94.45;65682.19;5032628;28;20597;-54
2023/07/15 06:41:57;;;;;;;17.65;10.10;;;;;;;25.43;95.64;65679.41;5033693;28;20213;-53
2023/07/15 06:44:24;;;;;;;15.02;10.93;;;;;;;25.51;92.33;65690.84;5033771;28;20306;-54
2023/07/15 06:46:50;;;;;;;14.52;10.98;;;;;;;25.47;93.73;65683.31;5034040;28;20423;-54
2023/07/15 06:49:16;;;;;;;14.48;10.75;;;;;;;25.35;95.38;65669.97;5033817;28;20280;-53
2023/07/15 06:51:42;;;;;;;16.55;10.75;;;;;;;25.57;94.74;65696.97;5033918;28;20225;-54
2023/07/15 06:54:08;;;;;;;15.43;10.40;;;;;;;25.61;94.98;65699.38;5033743;28;20206;-54
2023/07/15 06:56:33;;;;;;;16.55;11.32;;;;;;;25.75;92.43;65714.94;5029761;28;20230;-55
2023/07/15 06:58:59;;;;;;;12.38;10.60;;;;;;;25.69;91.85;65708.25;5012328;28;20207;-55
2023/07/15 07:01:25;;;;;;;15.57;11.25;;;;;;;25.66;92.75;65704.94;5013575;28;20222;-54
2023/07/15 07:03:51;;;;;;;14.95;9.85;;;;;;;25.70;92.07;65706.81;5012399;28;20210;-53
2023/07/15 07:06:17;;;;;;;12.93;9.25;;;;;;;25.79;90.13;65721.97;5012892;28;20210;-53
2023/07/15 07:08:42;;;;;;;15.43;10.05;;;;;;;25.75;90.59;65714.94;5012534;28;20213;-53
2023/07/15 07:11:08;;;;;;;15.93;9.43;;;;;;;26.08;89.76;65753.09;5013887;28;20643;-53
2023/07/15 07:13:33;;;;;;;11.32;9.20;;;;;;;26.01;90.31;65740.66;5013597;28;20198;-58
2023/07/15 07:15:59;;;;;;;14.45;10.68;;;;;;;26.07;89.23;65749.94;5013331;28;20302;-53
2023/07/15 07:18:26;;;;;;;11.52;9.10;;;;;;;26.29;85.99;65774.38;5013199;28;20608;-53
2023/07/15 07:20:56;;;;;;;13.50;9.38;;;;;;;26.22;86.08;65764.00;5013534;28;20227;-54
2023/07/15 07:23:22;;;;;;;13.52;9.25;;;;;;;26.19;88.31;65760.69;5013648;28;20242;-54
2023/07/15 07:25:47;;;;;;;14.10;9.65;;;;;;;26.32;86.32;65777.69;5013367;28;20300;-54
2023/07/15 07:28:12;;;;;;;17.67;9.23;;;;;;;26.37;86.16;65780.69;5013457;28;20638;-54
2023/07/15 07:30:41;;;;;;;14.02;8.55;;;;;;;26.35;87.42;65781.03;5013398;28;20233;-53
2023/07/15 07:33:06;;;;;;;20.17;10.00;;;;;;;26.54;83.36;65804.19;5013312;28;20203;-55
2023/07/15 07:35:32;;;;;;;16.95;9.55;;;;;;;26.54;84.84;65799.00;5013136;28;20281;-60
2023/07/15 07:37:58;;;;;;;16.45;9.45;;;;;;;26.36;83.83;65782.13;5013230;28;20554;-55
2023/07/15 07:40:26;;;;;;;9.38;8.05;;;;;;;26.58;82.71;65806.03;5013260;28;20717;-54
2023/07/15 07:42:51;;;;;;;13.35;9.20;;;;;;;26.75;79.08;65822.34;5013034;28;20207;-54
2023/07/15 07:45:17;;;;;;;13.30;8.93;;;;;;;26.60;82.34;65806.22;5013158;28;20750;-53
2023/07/15 07:47:42;;;;;;;18.17;10.15;;;;;;;26.66;83.71;65814.38;5012678;28;20225;-53
2023/07/15 07:50:08;;;;;;;11.82;9.10;;;;;;;26.87;83.26;65837.72;5012892;28;20211;-53
2023/07/15 07:52:34;;;;;;;15.85;10.55;;;;;;;27.06;83.73;65859.41;5012797;28;20682;-53
2023/07/15 07:55:00;;;;;;;14.07;9.25;;;;;;;27.06;82.05;65858.84;5012750;28;20207;-54
2023/07/15 07:57:26;;;;;;;12.68;8.88;;;;;;;26.97;79.61;65848.81;5012745;28;20211;-55
2023/07/15 07:59:52;;;;;;;12.90;8.50;;;;;;;26.97;78.98;65846.25;5012514;28;20241;-54
2023/07/15 08:02:18;;;;;;;13.30;7.90;;;;;;;26.90;77.47;65841.63;5012629;28;20309;-54
2023/07/15 08:04:43;;;;;;;18.20;12.77;;;;;;;27.07;78.58;65860.50;5012742;28;20274;-54
2023/07/15 08:07:09;;;;;;;9.82;8.13;;;;;;;27.40;77.05;65894.06;5012762;28;20211;-54
2023/07/15 08:09:35;;;;;;;12.15;8.18;;;;;;;27.55;77.31;65910.75;5012627;28;20205;-53
2023/07/15 08:12:05;;;;;;;14.07;8.45;;;;;;;27.60;74.96;65918.34;5012588;28;20713;-54
2023/07/15 08:14:31;;;;;;;12.00;7.63;;;;;;;27.52;76.35;65912.03;5011241;28;20214;-53
2023/07/15 08:16:57;;;;;;;20.08;12.75;;;;;;;27.72;75.46;65931.69;5012695;28;20215;-53
2023/07/15 08:19:22;;;;;;;20.10;10.15;;;;;;;27.73;76.50;65930.78;5012692;28;20222;-54
2023/07/15 08:21:47;;;;;;;14.80;9.50;;;;;;;27.80;72.15;65938.56;5012304;28;20599;-54
2023/07/15 08:24:20;;;;;;;15.07;8.82;;;;;;;27.83;72.90;65941.34;5012408;28;20221;-53
2023/07/15 08:26:45;;;;;;;10.30;8.27;;;;;;;27.91;71.76;65950.78;5012661;28;20218;-54
2023/07/15 08:29:11;;;;;;;15.77;9.23;;;;;;;27.95;71.54;65955.25;5012403;28;20525;-54
2023/07/15 08:31:36;;;;;;;14.98;9.20;;;;;;;27.96;73.13;65956.38;5012354;28;20241;-60
2023/07/15 08:34:03;;;;;;;11.77;8.45;;;;;;;28.05;72.69;65968.41;5010958;28;20249;-58
2023/07/15 08:36:29;;;;;;;11.63;8.10;;;;;;;28.14;73.16;65978.41;5012567;28;20211;-53
2023/07/15 08:38:54;;;;;;;11.35;9.05;;;;;;;28.34;74.92;65997.53;5012159;28;20201;-54
2023/07/15 08:41:23;;;;;;;11.50;8.38;;;;;;;28.47;73.82;66014.59;5012386;28;20288;-53
2023/07/15 08:43:49;;;;;;;16.58;10.10;;;;;;;28.56;72.38;66024.63;5011913;28;20195;-53
2023/07/15 08:46:29;;;;;;;11.88;10.23;;;;;;;28.46;71.97;66013.50;5011962;28;20242;-54
2023/07/15 08:48:56;;;;;;;16.52;10.18;;;;;;;28.66;72.81;66033.72;5011951;28;20634;-54
2023/07/15 08:51:25;;;;;;;13.65;10.45;;;;;;;28.64;74.59;66030.94;5011835;28;20211;-54
2023/07/15 08:53:53;;;;;;;13.20;9.75;;;;;;;28.57;70.26;66023.16;5012306;28;20203;-54
2023/07/15 08:56:20;;;;;;;13.10;9.25;;;;;;;28.50;71.79;66015.91;5010510;28;20203;-54
2023/07/15 08:58:47;;;;;;;12.57;8.77;;;;;;;28.54;74.19;66019.78;5010516;28;20203;-54
2023/07/15 09:01:14;;;;;;;15.48;9.18;;;;;;;28.68;73.62;66038.56;5009420;28;20230;-54
2023/07/15 09:03:39;;;;;;;12.85;9.48;;;;;;;28.86;72.08;66058.59;5011766;28;20276;-53
2023/07/15 09:06:05;;;;;;;13.13;9.30;;;;;;;28.93;73.88;66066.38;5027041;28;20685;-54
2023/07/15 09:08:30;;;;;;;13.73;9.55;;;;;;;29.19;71.19;66097.38;5011941;28;20194;-53
2023/07/15 09:10:58;;;;;;;15.85;9.27;;;;;;;28.94;69.60;66067.50;5011861;28;20207;-53
2023/07/15 09:13:25;;;;;;;11.68;9.75;;;;;;;28.72;67.91;66037.81;5011788;28;20210;-53
2023/07/15 09:15:51;;;;;;;10.30;8.40;;;;;;;29.13;70.31;66088.09;5011600;28;20203;-54
2023/07/15 09:18:18;;;;;;;14.88;9.55;;;;;;;29.42;66.04;66120.41;5011747;28;20229;-54
2023/07/15 09:20:44;;;;;;;11.30;9.10;;;;;;;29.29;70.35;66105.91;5011272;28;20704;-55
2023/07/15 09:23:10;;;;;;;11.35;9.70;;;;;;;29.42;67.26;66120.41;5011385;28;20719;-56
2023/07/15 09:25:36;;;;;;;13.07;9.38;;;;;;;29.56;69.36;66135.44;5011361;28;20203;-54
2023/07/15 09:28:02;;;;;;;17.13;10.15;;;;;;;29.58;66.04;66140.81;5011504;28;20218;-54
2023/07/15 09:30:27;;;;;;;15.07;11.23;;;;;;;29.60;67.52;66137.84;5011450;28;20207;-53
2023/07/15 09:32:52;;;;;;;12.32;10.27;;;;;;;29.88;65.17;66167.97;5011343;28;20731;-59
2023/07/15 09:35:20;;;;;;;12.00;9.65;;;;;;;30.01;69.14;66185.03;5026402;28;20670;-54
2023/07/15 09:37:48;;;;;;;13.75;10.07;;;;;;;29.96;68.20;66174.28;5011174;28;20691;-53
2023/07/15 09:40:14;;;;;;;16.23;10.70;;;;;;;30.24;67.26;66210.69;5011189;28;20677;-54
2023/07/15 09:42:57;;;;;;;14.45;9.20;;;;;;;30.31;63.58;66218.50;5011138;28;20217;-55
2023/07/15 09:45:41;;;;;;;14.48;10.20;;;;;;;30.61;63.73;66249.34;5011354;28;20203;-57
2023/07/15 09:48:16;;;;;;;13.85;10.50;;;;;;;30.67;63.05;66256.59;5011173;28;20239;-55
2023/07/15 09:50:42;;;;;;;14.60;12.52;;;;;;;30.61;65.71;66249.34;5011251;28;20282;-54
2023/07/15 09:53:09;;;;;;;14.88;10.80;;;;;;;30.77;63.10;66267.16;5010948;28;20260;-55
2023/07/15 09:55:36;;;;;;;14.95;11.45;;;;;;;30.93;63.96;66284.50;5010897;28;20217;-54
2023/07/15 09:58:04;;;;;;;15.25;10.32;;;;;;;30.94;63.87;66288.75;5010921;28;20738;-54
2023/07/15 10:00:34;;;;;;;14.75;11.23;;;;;;;31.13;64.96;66304.72;5010896;28;20282;-55
2023/07/15 10:03:02;;;;;;;15.50;10.88;;;;;;;31.30;60.17;66328.91;5011058;28;20205;-53
2023/07/15 10:05:28;;;;;;;13.63;10.57;;;;;;;31.03;59.92;66296.19;5011035;28;20206;-53
2023/07/15 10:07:54;;;;;;;16.02;13.05;;;;;;;31.34;60.85;66330.75;5009566;28;20230;-53
2023/07/15 10:10:20;;;;;;;17.80;11.07;;;;;;;31.33;58.79;66327.03;5010895;28;20289;-54
2023/07/15 10:12:47;;;;;;;16.30;10.07;;;;;;;31.51;59.10;66346.03;5010628;28;20214;-54
2023/07/15 10:15:14;;;;;;;15.77;10.93;;;;;;;31.63;59.41;66362.59;5010692;28;20198;-54
2023/07/15 10:17:46;;;;;;;19.17;13.05;;;;;;;32.02;60.00;66408.72;5010777;28;20285;-54
2023/07/15 10:20:17;;;;;;;14.90;10.05;;;;;;;31.67;58.98;66363.88;5010614;28;20235;-55
2023/07/15 10:22:44;;;;;;;16.65;11.15;;;;;;;32.06;59.15;66407.41;5009623;28;20203;-58
2023/07/15 10:25:11;;;;;;;11.48;10.20;;;;;;;32.16;56.70;66419.13;5010571;28;20225;-54
2023/07/15 10:27:37;;;;;;;13.27;10.52;;;;;;;32.35;57.46;66439.22;5010766;28;20202;-55
2023/07/15 10:30:23;;;;;;;16.20;9.45;;;;;;;32.46;55.56;66452.09;5010578;28;20322;-53
2023/07/15 10:33:00;;;;;;;18.85;10.65;;;;;;;32.00;56.42;66401.28;5010685;28;20298;-54
2023/07/15 10:35:27;;;;;;;16.05;12.00;;;;;;;32.28;57.44;66432.00;5010728;28;20766;-54
2023/07/15 10:37:56;;;;;;;15.05;10.00;;;;;;;32.48;56.75;66453.78;5010255;28;20222;-54
2023/07/15 10:41:04;;;;;;;17.88;10.43;;;;;;;32.73;56.86;66484.84;5009046;28;20222;-54
2023/07/15 10:43:40;;;;;;;17.55;10.05;;;;;;;32.99;56.89;66511.31;4969384;28;20266;-53
2023/07/15 10:46:16;;;;;;;13.20;10.50;;;;;;;33.37;55.69;66553.19;5006797;28;20272;-54
2023/07/15 10:48:41;;;;;;;15.50;11.13;;;;;;;33.57;53.61;66575.56;5010676;28;20217;-54
2023/07/15 10:51:11;;;;;;;15.27;10.38;;;;;;;33.69;50.54;66591.59;5009922;28;20608;-54
2023/07/15 10:53:37;;;;;;;13.82;10.70;;;;;;;33.75;51.86;66595.13;5010304;28;20221;-55
2023/07/15 10:56:05;;;;;;;16.40;11.15;;;;;;;33.98;50.49;66623.44;5010306;28;20207;-54
2023/07/15 10:58:32;;;;;;;13.48;10.00;;;;;;;33.59;53.18;66579.84;5010095;28;20201;-54
2023/07/15 11:01:00;;;;;;;12.45;10.27;;;;;;;34.00;52.69;66625.16;5008826;28;20211;-54
2023/07/15 11:03:27;;;;;;;14.10;9.90;;;;;;;34.03;52.28;66629.06;5009975;28;20260;-53
2023/07/15 11:06:03;;;;;;;12.95;9.23;;;;;;;33.76;48.72;66599.41;5010412;28;20206;-54
2023/07/15 11:08:30;;;;;;;12.43;9.77;;;;;;;33.73;49.81;66595.50;5010082;28;20684;-55
2023/07/15 11:10:59;;;;;;;17.52;8.70;;;;;;;33.76;51.52;66598.84;5009932;28;20225;-55
2023/07/15 11:13:25;;;;;;;14.38;9.55;;;;;;;33.61;51.78;66584.72;5010046;28;20700;-53
2023/07/15 11:15:51;;;;;;;11.88;10.27;;;;;;;33.90;50.51;66611.88;5008652;28;20243;-55
2023/07/15 11:18:18;;;;;;;15.25;9.50;;;;;;;33.62;49.29;66580.59;5025113;28;20199;-53